createdAt,value
2023-01-23T00:01:55.656Z,3.60
2023-01-23T00:04:24.011Z,4.20
2023-01-23T00:06:52.532Z,4.15
2023-01-23T00:09:22.242Z,4.15
2023-01-23T00:11:50.606Z,3.70
2023-01-23T00:14:18.937Z,3.10
2023-01-23T00:16:47.365Z,4.32
2023-01-23T00:19:15.794Z,4.10
2023-01-23T00:21:44.113Z,4.93
2023-01-23T00:24:14.157Z,6.57
2023-01-23T00:26:44.094Z,5.80
2023-01-23T00:29:15.716Z,5.03
2023-01-23T00:31:44.245Z,4.30
2023-01-23T00:34:14.985Z,4.40
2023-01-23T00:36:44.743Z,4.25
2023-01-23T00:39:17.710Z,4.85
2023-01-23T00:41:48.427Z,5.07
2023-01-23T00:44:17.981Z,4.80
2023-01-23T00:46:46.490Z,5.13
2023-01-23T00:49:17.870Z,5.55
2023-01-23T00:51:46.390Z,5.60
2023-01-23T00:54:14.875Z,4.57
2023-01-23T00:56:43.415Z,5.55
2023-01-23T00:59:13.092Z,7.43
2023-01-23T01:01:41.889Z,14.85
2023-01-23T01:04:10.325Z,13.57
2023-01-23T01:06:38.682Z,13.27
2023-01-23T01:09:07.254Z,32.08
2023-01-23T01:11:35.582Z,6.22
2023-01-23T01:14:03.960Z,5.15
2023-01-23T01:16:33.869Z,9.77
2023-01-23T01:19:02.176Z,5.78
2023-01-23T01:21:30.573Z,7.22
2023-01-23T01:23:58.822Z,6.93
2023-01-23T01:26:27.219Z,9.70
2023-01-23T01:28:55.516Z,11.65
2023-01-23T01:31:24.120Z,25.42
2023-01-23T01:33:53.953Z,9.75
2023-01-23T01:36:25.504Z,5.63
2023-01-23T01:38:53.864Z,11.13
2023-01-23T01:41:22.322Z,15.65
2023-01-23T01:43:51.300Z,33.67
2023-01-23T01:46:22.488Z,7.97
2023-01-23T01:49:05.832Z,11.10
2023-01-23T01:51:37.766Z,16.67
2023-01-23T01:54:12.837Z,58.42
2023-01-23T01:56:45.918Z,46.58
2023-01-23T01:59:15.544Z,25.50
2023-01-23T02:01:47.986Z,9.27
2023-01-23T02:04:17.708Z,68.57
2023-01-23T02:06:46.574Z,8.20
2023-01-23T02:09:20.248Z,15.25
2023-01-23T02:14:17.583Z,197.55
2023-01-23T02:16:51.118Z,60.53
2023-01-23T02:19:33.571Z,47.20
2023-01-23T02:22:08.248Z,80.03
2023-01-23T02:24:43.094Z,133.07
2023-01-23T02:27:12.971Z,165.68
2023-01-23T02:29:42.937Z,304.45
2023-01-23T02:32:11.358Z,264.00
2023-01-23T02:34:39.816Z,375.35
2023-01-23T02:37:09.761Z,257.85
2023-01-23T02:39:39.751Z,428.65
2023-01-23T02:42:08.253Z,280.23
2023-01-23T02:44:38.231Z,467.23
2023-01-23T02:47:12.478Z,398.08
2023-01-23T02:49:40.947Z,290.15
2023-01-23T02:52:09.917Z,343.95
2023-01-23T02:54:39.547Z,154.32
2023-01-23T02:57:07.978Z,434.00
2023-01-23T02:59:55.019Z,166.68
2023-01-23T03:02:23.598Z,115.10
2023-01-23T03:04:51.915Z,89.70
2023-01-23T03:07:20.567Z,186.52
2023-01-23T03:09:49.985Z,373.90
2023-01-23T03:12:18.384Z,248.68
2023-01-23T03:14:48.727Z,85.43
2023-01-23T03:17:17.035Z,94.97
2023-01-23T03:19:45.693Z,145.32
2023-01-23T03:22:14.964Z,61.47
2023-01-23T03:24:43.268Z,111.45
2023-01-23T03:27:11.944Z,149.70
2023-01-23T03:29:54.013Z,70.82
2023-01-23T03:32:26.143Z,89.38
2023-01-23T03:34:54.528Z,129.57
2023-01-23T03:37:22.871Z,218.75
2023-01-23T03:40:08.358Z,64.55
2023-01-23T03:42:37.354Z,79.53
2023-01-23T03:45:06.616Z,38.83
2023-01-23T03:47:36.525Z,45.78
2023-01-23T03:50:05.152Z,149.68
2023-01-23T03:52:33.630Z,34.20
2023-01-23T03:55:02.278Z,95.55
2023-01-23T03:57:30.604Z,78.38
2023-01-23T03:59:58.957Z,40.58
2023-01-23T04:02:28.012Z,34.15
2023-01-23T04:04:57.899Z,58.75
2023-01-23T04:07:26.274Z,41.17
2023-01-23T04:09:54.556Z,45.92
2023-01-23T04:12:22.909Z,80.68
2023-01-23T04:14:51.177Z,47.92
2023-01-23T04:17:19.535Z,110.53
2023-01-23T04:19:47.783Z,86.00
2023-01-23T04:22:17.666Z,43.95
2023-01-23T04:24:45.998Z,66.80
2023-01-23T04:27:14.322Z,208.20
2023-01-23T04:29:42.625Z,86.53
2023-01-23T04:32:10.954Z,80.50
2023-01-23T04:34:39.400Z,95.15
2023-01-23T04:37:07.866Z,35.92
2023-01-23T04:39:37.609Z,56.72
2023-01-23T04:42:05.981Z,35.95
2023-01-23T04:44:34.364Z,76.07
2023-01-23T04:47:02.754Z,89.90
2023-01-23T04:49:31.108Z,86.93
2023-01-23T04:51:59.469Z,32.63
2023-01-23T04:54:27.878Z,40.55
2023-01-23T04:56:57.999Z,64.93
2023-01-23T04:59:26.359Z,60.55
2023-01-23T05:01:54.746Z,82.35
2023-01-23T05:04:23.129Z,43.90
2023-01-23T05:06:51.468Z,86.82
2023-01-23T05:09:19.793Z,48.45
2023-01-23T05:11:48.082Z,90.32
2023-01-23T05:14:17.941Z,140.63
2023-01-23T05:16:46.295Z,141.82
2023-01-23T05:19:15.017Z,165.93
2023-01-23T05:21:43.507Z,194.57
2023-01-23T05:24:11.894Z,145.88
2023-01-23T05:26:40.294Z,222.88
2023-01-23T05:29:08.613Z,159.82
2023-01-23T05:31:38.506Z,125.47
2023-01-23T05:34:06.811Z,95.25
2023-01-23T05:36:35.192Z,64.05
2023-01-23T05:39:03.485Z,229.77
2023-01-23T05:41:31.883Z,115.72
2023-01-23T05:44:00.135Z,136.07
2023-01-23T05:46:28.547Z,70.50
2023-01-23T05:48:58.417Z,78.28
2023-01-23T05:51:31.748Z,119.43
2023-01-23T05:54:00.195Z,78.53
2023-01-23T05:56:29.222Z,178.90
2023-01-23T05:58:57.890Z,67.50
2023-01-23T06:01:26.647Z,70.40
2023-01-23T06:03:55.395Z,93.38
2023-01-23T06:06:25.254Z,101.10
2023-01-23T06:08:53.489Z,95.32
2023-01-23T06:11:21.845Z,229.40
2023-01-23T06:13:50.249Z,154.00
2023-01-23T06:16:18.612Z,237.95
2023-01-23T06:18:46.995Z,264.77
2023-01-23T06:21:18.459Z,316.35
2023-01-23T06:23:48.281Z,242.75
2023-01-23T06:26:17.085Z,363.05
2023-01-23T06:28:45.413Z,385.33
2023-01-23T06:31:13.990Z,374.15
2023-01-23T06:33:42.303Z,351.70
2023-01-23T06:36:11.710Z,281.38
2023-01-23T06:38:39.987Z,355.10
2023-01-23T06:41:10.188Z,290.30
2023-01-23T06:43:38.496Z,315.02
2023-01-23T06:46:09.537Z,251.73
2023-01-23T06:48:38.457Z,193.52
2023-01-23T06:51:07.729Z,235.88
2023-01-23T06:53:36.169Z,319.80
2023-01-23T06:56:05.562Z,447.77
2023-01-23T06:58:38.858Z,412.73
2023-01-23T07:01:11.877Z,390.58
2023-01-23T07:03:40.949Z,533.70
2023-01-23T07:06:09.748Z,545.53
2023-01-23T07:08:38.455Z,444.23
2023-01-23T07:11:07.320Z,378.58
2023-01-23T07:13:37.231Z,479.33
2023-01-23T07:16:06.248Z,311.27
2023-01-23T07:18:36.140Z,400.67
2023-01-23T07:21:06.952Z,548.72
2023-01-23T07:23:36.089Z,588.78
2023-01-23T07:26:09.594Z,465.88
2023-01-23T07:28:40.323Z,573.38
2023-01-23T07:31:08.926Z,424.10
2023-01-23T07:33:37.284Z,303.85
2023-01-23T07:36:07.428Z,404.52
2023-01-23T07:38:36.080Z,429.25
2023-01-23T07:41:04.529Z,276.00
2023-01-23T07:43:32.807Z,219.77
2023-01-23T07:46:02.773Z,291.90
2023-01-23T07:48:31.114Z,296.50
2023-01-23T07:51:04.181Z,383.00
2023-01-23T07:53:32.543Z,385.77
2023-01-23T07:56:02.446Z,265.83
2023-01-23T07:58:30.714Z,378.23
2023-01-23T08:00:59.167Z,227.13
2023-01-23T08:03:30.225Z,405.42
2023-01-23T08:05:59.844Z,264.65
2023-01-23T08:08:28.092Z,483.65
2023-01-23T08:10:56.511Z,382.45
2023-01-23T08:13:24.852Z,338.23
2023-01-23T08:15:53.557Z,382.23
2023-01-23T08:18:21.920Z,339.50
2023-01-23T08:20:56.184Z,421.63
2023-01-23T08:23:26.765Z,319.23
2023-01-23T08:25:55.309Z,453.38
2023-01-23T08:28:24.456Z,295.77
2023-01-23T08:30:53.665Z,265.80
2023-01-23T08:33:22.980Z,278.50
2023-01-23T08:35:52.005Z,284.42
2023-01-23T08:38:22.239Z,225.55
2023-01-23T08:40:52.879Z,178.82
2023-01-23T08:43:21.405Z,314.95
2023-01-23T08:45:51.564Z,336.02
2023-01-23T08:48:20.524Z,244.60
2023-01-23T08:50:48.969Z,128.68
2023-01-23T08:53:17.638Z,229.05
2023-01-23T08:55:47.456Z,237.27
2023-01-23T08:58:15.795Z,310.42
2023-01-23T09:00:44.223Z,190.73
2023-01-23T09:03:12.602Z,158.57
2023-01-23T09:05:40.881Z,205.63
2023-01-23T09:08:09.244Z,160.05
2023-01-23T09:10:38.084Z,206.07
2023-01-23T09:13:07.911Z,268.27
2023-01-23T09:15:36.649Z,375.60
2023-01-23T09:18:05.063Z,321.80
2023-01-23T09:20:33.452Z,277.33
2023-01-23T09:23:01.789Z,254.80
2023-01-23T09:25:31.426Z,291.23
2023-01-23T09:27:59.748Z,256.15
2023-01-23T09:30:29.738Z,197.98
2023-01-23T09:32:58.069Z,237.68
2023-01-23T09:35:26.378Z,233.45
2023-01-23T09:38:06.893Z,260.58
2023-01-23T09:40:38.655Z,313.65
2023-01-23T09:43:15.253Z,293.38
2023-01-23T09:45:48.109Z,259.55
2023-01-23T09:48:22.687Z,175.10
2023-01-23T09:50:57.779Z,127.05
2023-01-23T09:53:32.091Z,89.30
2023-01-23T09:56:04.524Z,104.57
2023-01-23T09:58:38.855Z,183.20
2023-01-23T10:01:12.757Z,119.78
2023-01-23T10:03:41.458Z,164.18
2023-01-23T10:06:22.768Z,126.88
2023-01-23T10:09:22.001Z,175.60
2023-01-23T10:11:58.949Z,266.90
2023-01-23T10:14:51.237Z,248.90
2023-01-23T10:17:31.268Z,145.20
2023-01-23T10:20:19.426Z,308.90
2023-01-23T10:22:53.097Z,133.18
2023-01-23T10:27:52.910Z,218.93
2023-01-23T10:30:29.037Z,150.02
2023-01-23T10:33:02.353Z,50.03
2023-01-23T10:35:38.118Z,178.00
2023-01-23T10:38:26.862Z,127.95
2023-01-23T10:41:12.440Z,77.80
2023-01-23T10:43:42.114Z,107.63
2023-01-23T10:46:13.840Z,109.60
2023-01-23T10:48:48.609Z,92.45
2023-01-23T10:51:28.318Z,68.60
2023-01-23T10:54:30.212Z,378.58
2023-01-23T10:57:01.390Z,297.77
2023-01-23T10:59:34.508Z,430.00
2023-01-23T11:02:20.766Z,189.80
2023-01-23T11:04:53.184Z,296.42
2023-01-23T11:07:24.659Z,526.22
2023-01-23T11:09:56.908Z,227.80
2023-01-23T11:12:26.851Z,535.90
2023-01-23T11:15:13.677Z,285.02
2023-01-23T11:17:43.840Z,306.40
2023-01-23T11:20:25.771Z,195.00
2023-01-23T11:23:17.013Z,287.67
2023-01-23T11:25:47.425Z,297.70
2023-01-23T11:28:23.764Z,251.13
2023-01-23T11:31:11.604Z,247.88
2023-01-23T11:33:51.905Z,209.02
2023-01-23T11:36:38.304Z,226.85
2023-01-23T11:39:17.108Z,399.55
2023-01-23T11:41:47.570Z,296.30
2023-01-23T11:44:21.087Z,219.40
2023-01-23T11:47:17.300Z,258.13
2023-01-23T11:50:07.099Z,147.55
2023-01-23T11:52:49.661Z,40.63
2023-01-23T11:55:56.082Z,60.53
2023-01-23T11:58:49.501Z,118.97
2023-01-23T12:01:24.329Z,65.50
2023-01-23T12:04:30.719Z,137.20
2023-01-23T12:07:09.554Z,96.55
2023-01-23T12:09:46.669Z,197.00
2023-01-23T12:12:26.921Z,94.95
2023-01-23T12:15:02.173Z,114.97
2023-01-23T12:17:40.424Z,227.70
2023-01-23T12:20:35.575Z,193.63
2023-01-23T12:23:31.499Z,336.63
2023-01-23T12:26:13.336Z,240.30
2023-01-23T12:29:13.859Z,165.45
2023-01-23T12:31:57.176Z,69.63
2023-01-23T12:34:45.331Z,81.50
2023-01-23T12:37:31.855Z,99.07
2023-01-23T12:40:10.062Z,44.75
2023-01-23T12:42:49.026Z,52.45
2023-01-23T12:45:23.393Z,40.67
2023-01-23T12:48:00.947Z,65.93
2023-01-23T12:50:39.473Z,50.28
2023-01-23T12:53:11.566Z,57.45
2023-01-23T12:55:44.779Z,61.22
2023-01-23T12:58:18.927Z,49.53
2023-01-23T13:01:03.950Z,37.38
2023-01-23T13:03:48.243Z,27.67
2023-01-23T13:06:40.590Z,22.10
2023-01-23T13:09:18.829Z,27.20
2023-01-23T13:11:57.871Z,23.02
2023-01-23T13:15:06.495Z,17.75
2023-01-23T13:17:37.798Z,20.67
2023-01-23T13:20:44.896Z,15.30
2023-01-23T13:23:30.880Z,16.73
2023-01-23T13:26:32.009Z,18.48
2023-01-23T13:29:04.107Z,17.38
2023-01-23T13:31:52.788Z,21.38
2023-01-23T13:34:41.767Z,17.52
2023-01-23T13:37:52.421Z,20.58
2023-01-23T13:40:24.266Z,24.15
2023-01-23T13:42:52.986Z,14.95
2023-01-23T13:45:34.955Z,15.98
2023-01-23T14:22:56.302Z,120.22
2023-01-23T14:25:25.890Z,236.57
2023-01-23T14:28:04.846Z,368.55
2023-01-23T14:30:33.199Z,301.52
2023-01-23T14:33:01.671Z,277.83
2023-01-23T14:35:32.311Z,130.43
2023-01-23T14:38:06.173Z,139.68
2023-01-23T14:40:49.302Z,261.23
2023-01-23T14:43:22.026Z,264.30
2023-01-23T14:45:57.407Z,243.32
2023-01-23T14:48:25.926Z,341.15
2023-01-23T14:51:04.478Z,115.82
2023-01-23T14:53:34.359Z,351.33
2023-01-23T14:56:03.391Z,446.88
2023-01-23T14:58:32.523Z,259.95
2023-01-23T15:01:03.341Z,198.90
2023-01-23T15:03:39.846Z,216.52
2023-01-23T15:06:13.179Z,300.10
2023-01-23T15:08:43.346Z,537.10
2023-01-23T15:11:14.878Z,284.38
2023-01-23T15:13:47.738Z,313.25
2023-01-23T15:16:21.616Z,460.25
2023-01-23T15:18:55.967Z,526.83
2023-01-23T15:21:30.981Z,588.40
2023-01-23T15:24:08.012Z,379.65
2023-01-23T15:26:37.687Z,367.83
2023-01-23T15:29:20.014Z,369.65
2023-01-23T15:31:51.520Z,358.92
2023-01-23T15:34:24.129Z,411.33
2023-01-23T15:36:56.625Z,572.67
2023-01-23T15:39:28.513Z,575.60
2023-01-23T15:41:59.696Z,379.52
2023-01-23T15:44:29.986Z,488.90
2023-01-23T15:47:01.360Z,729.33
2023-01-23T15:49:30.239Z,297.25
2023-01-23T15:51:59.738Z,469.63
2023-01-23T15:54:33.853Z,513.70
2023-01-23T15:57:09.627Z,445.52
2023-01-23T15:59:38.432Z,347.25
2023-01-23T16:02:29.651Z,233.63
2023-01-23T16:04:55.827Z,195.15
2023-01-23T16:07:27.065Z,256.35
2023-01-23T16:09:57.926Z,356.25
2023-01-23T16:12:29.793Z,498.27
2023-01-23T16:14:58.659Z,328.55
2023-01-23T16:17:27.121Z,293.65
2023-01-23T16:19:55.687Z,374.88
2023-01-23T16:22:29.454Z,417.52
2023-01-23T16:24:59.995Z,601.78
2023-01-23T16:27:28.636Z,476.23
2023-01-23T16:29:57.465Z,492.13
2023-01-23T16:32:26.361Z,602.85
2023-01-23T16:34:54.802Z,542.53
2023-01-23T16:37:23.126Z,614.25
2023-01-23T16:39:51.517Z,675.55
2023-01-23T16:42:23.618Z,526.42
2023-01-23T16:44:52.563Z,741.13
2023-01-23T16:47:20.918Z,511.30
2023-01-23T16:49:54.081Z,529.33
2023-01-23T16:52:26.609Z,534.22
2023-01-23T16:54:56.677Z,582.45
2023-01-23T16:57:26.706Z,566.13
2023-01-23T16:59:56.513Z,530.67
2023-01-23T17:02:29.069Z,521.13
2023-01-23T17:04:57.550Z,654.25
2023-01-23T17:07:26.004Z,548.78
2023-01-23T17:09:54.295Z,561.40
2023-01-23T17:12:27.769Z,666.50
2023-01-23T17:14:58.264Z,711.42
2023-01-23T17:17:31.771Z,711.65
2023-01-23T17:20:01.381Z,534.38
2023-01-23T17:22:31.838Z,574.40
2023-01-23T17:25:00.239Z,737.00
2023-01-23T17:27:28.804Z,679.83
2023-01-23T17:29:58.711Z,578.17
2023-01-23T17:32:32.748Z,716.33
2023-01-23T17:35:03.465Z,836.83
2023-01-23T17:37:32.309Z,693.60
2023-01-23T17:40:00.759Z,653.33
2023-01-23T17:42:29.216Z,606.40
2023-01-23T17:44:59.358Z,712.83
2023-01-23T17:47:28.318Z,613.35
2023-01-23T17:49:57.524Z,703.72
2023-01-23T17:52:27.136Z,743.67
2023-01-23T17:54:55.681Z,706.10
2023-01-23T17:57:24.078Z,638.13
2023-01-23T17:59:56.381Z,725.58
2023-01-23T18:02:31.558Z,608.20
2023-01-23T18:04:59.958Z,757.22
2023-01-23T18:07:28.386Z,736.45
2023-01-23T18:09:56.779Z,631.92
2023-01-23T18:12:32.357Z,708.97
2023-01-23T18:15:11.840Z,581.45
2023-01-23T18:17:49.310Z,601.38
2023-01-23T18:20:20.949Z,728.58
2023-01-23T18:22:50.427Z,615.08
2023-01-23T18:25:21.959Z,731.92
2023-01-23T18:27:55.447Z,595.60
2023-01-23T18:30:41.379Z,572.60
2023-01-23T18:33:24.135Z,465.45
2023-01-23T18:36:18.028Z,480.83
2023-01-23T18:39:09.994Z,536.22
2023-01-23T18:41:45.877Z,468.98
2023-01-23T18:44:17.589Z,343.55
2023-01-23T18:46:48.346Z,467.98
2023-01-23T18:49:32.139Z,341.95
2023-01-23T18:52:09.379Z,351.08
2023-01-23T18:54:43.724Z,318.83
2023-01-23T18:57:22.523Z,449.23
2023-01-23T19:00:01.042Z,319.77
2023-01-23T19:02:36.007Z,405.92
2023-01-23T19:05:24.815Z,378.55
2023-01-23T19:07:54.753Z,191.10
2023-01-23T19:10:25.539Z,159.98
2023-01-23T19:13:14.311Z,193.32
2023-01-23T19:15:50.640Z,235.60
2023-01-23T19:18:40.821Z,173.57
2023-01-23T19:21:16.923Z,26.15
2023-01-23T19:23:52.945Z,121.18
2023-01-23T19:26:23.314Z,64.40
2023-01-23T19:28:52.690Z,41.67
2023-01-23T19:31:23.564Z,28.75
2023-01-23T19:33:52.536Z,29.60
2023-01-23T19:36:23.324Z,37.70
2023-01-23T19:38:52.691Z,52.08
2023-01-23T19:41:23.192Z,28.73
2023-01-23T19:43:54.435Z,27.42
2023-01-23T19:46:27.543Z,23.48
2023-01-23T19:48:58.368Z,19.63
2023-01-23T19:51:31.366Z,19.20
2023-01-23T19:54:01.550Z,19.10
2023-01-23T19:56:31.302Z,20.13
2023-01-23T19:59:01.258Z,21.58
2023-01-23T20:01:41.276Z,22.13
2023-01-23T20:04:16.527Z,17.73
2023-01-23T20:06:49.620Z,22.05
2023-01-23T20:09:19.811Z,20.50
2023-01-23T20:11:49.822Z,22.15
2023-01-23T20:14:19.592Z,16.48
2023-01-23T20:16:49.466Z,16.85
2023-01-23T20:19:19.376Z,15.75
2023-01-23T20:21:50.918Z,16.30
2023-01-23T20:24:20.861Z,19.05
2023-01-23T20:26:50.465Z,20.15
2023-01-23T20:29:20.055Z,18.80
2023-01-23T20:31:49.754Z,20.15
2023-01-23T20:34:19.607Z,16.88
2023-01-23T20:36:51.023Z,18.60
2023-01-23T20:39:20.671Z,21.13
2023-01-23T20:41:49.785Z,20.88
2023-01-23T20:44:18.112Z,18.00
2023-01-23T20:46:47.088Z,19.58
2023-01-23T20:49:15.684Z,14.10
2023-01-23T20:51:44.797Z,14.65
2023-01-23T20:54:14.952Z,16.95
2023-01-23T20:56:44.133Z,18.33
2023-01-23T20:59:21.571Z,15.90
2023-01-23T21:02:07.013Z,14.80
2023-01-23T21:04:36.702Z,16.58
2023-01-23T21:07:05.979Z,14.75
2023-01-23T21:09:35.742Z,19.70
2023-01-23T21:12:05.645Z,15.02
2023-01-23T21:14:34.791Z,14.07
2023-01-23T21:17:05.509Z,13.38
2023-01-23T21:19:34.844Z,14.75
2023-01-23T21:22:06.123Z,13.18
2023-01-23T21:24:36.566Z,14.38
2023-01-23T21:27:06.488Z,15.65
2023-01-23T21:29:35.730Z,16.30
2023-01-23T21:32:04.299Z,20.67
2023-01-23T21:34:32.758Z,19.15
2023-01-23T21:37:01.165Z,16.02
2023-01-23T21:39:29.590Z,15.25
2023-01-23T21:41:59.448Z,16.33
2023-01-23T21:44:27.830Z,16.35
2023-01-23T21:46:56.591Z,15.10
2023-01-23T21:49:25.282Z,16.25
2023-01-23T21:51:53.638Z,18.38
2023-01-23T21:54:22.201Z,15.32
2023-01-23T21:56:50.523Z,19.00
2023-01-23T21:59:20.279Z,17.05
2023-01-23T22:01:47.619Z,18.35
2023-01-23T22:04:18.558Z,15.90
2023-01-23T22:06:47.778Z,18.42
2023-01-23T22:09:18.531Z,23.35
2023-01-23T22:11:48.237Z,22.08
2023-01-23T22:14:17.072Z,20.95
2023-01-23T22:16:49.374Z,19.00
2023-01-23T22:19:20.097Z,24.30
2023-01-23T22:21:49.395Z,20.00
2023-01-23T22:24:17.778Z,16.77
2023-01-23T22:26:46.176Z,22.27
2023-01-23T22:29:15.119Z,15.85
2023-01-23T22:31:43.851Z,16.52
2023-01-23T22:34:13.570Z,14.18
2023-01-23T22:36:42.073Z,14.23
2023-01-23T22:39:14.389Z,12.52
2023-01-23T22:41:42.811Z,13.02
2023-01-23T22:44:14.047Z,12.18
2023-01-23T22:46:42.494Z,15.48
2023-01-23T22:49:10.910Z,15.32
2023-01-23T22:51:40.830Z,13.93
2023-01-23T22:54:09.256Z,16.45
2023-01-23T22:56:37.785Z,14.43
2023-01-23T22:59:06.107Z,15.18
2023-01-23T23:01:34.519Z,14.80
2023-01-23T23:04:03.093Z,11.27
2023-01-23T23:06:31.494Z,13.73
2023-01-23T23:09:01.583Z,14.70
2023-01-23T23:11:30.327Z,15.32
2023-01-23T23:13:59.672Z,19.00
2023-01-23T23:16:31.120Z,14.43
2023-01-23T23:19:01.891Z,15.95
2023-01-23T23:21:33.395Z,14.52
2023-01-23T23:24:04.433Z,16.35
2023-01-23T23:26:33.308Z,15.88
2023-01-23T23:29:02.279Z,14.77
2023-01-23T23:31:31.205Z,15.02
2023-01-23T23:33:59.689Z,12.43
2023-01-23T23:36:28.337Z,15.63
2023-01-23T23:38:56.727Z,15.93
2023-01-23T23:41:26.808Z,12.38
2023-01-23T23:43:55.161Z,13.13
2023-01-23T23:46:23.526Z,24.08
2023-01-23T23:48:51.859Z,16.10
2023-01-23T23:51:22.932Z,18.63
2023-01-23T23:53:51.691Z,16.80
2023-01-23T23:56:23.064Z,15.18
2023-01-23T23:58:52.971Z,16.70
